Time;durP1;ratioP1;P1;durP2;ratioP2;P2;SDS_P1;SDS_P2;PMS_P1;PMS_P2;Temp;Humidity;BMP_temperature;BMP_pressure;BME280_temperature;BME280_humidity;BME280_pressure;Samples;Min_cycle;Max_cycle;Signal;HPM_P1;HPM_P2
2023/06/20 00:01:39;;;;;;;5.70;2.40;;;;;;;;;;10590451;28;21570;-80
2023/06/20 00:06:42;;;;;;;4.78;2.70;;;;;;;;;;10593297;27;20114;-80
2023/06/20 00:11:45;;;;;;;5.90;2.83;;;;;;;;;;10590925;28;20162;-80
2023/06/20 00:16:49;;;;;;;4.77;2.73;;;;;;;;;;10589004;28;20236;-79
2023/06/20 00:21:51;;;;;;;4.93;2.80;;;;;;;;;;10587773;27;20036;-80
2023/06/20 00:26:56;;;;;;;5.37;2.93;;;;;;;;;;10595127;27;20028;-80
2023/06/20 00:32:00;;;;;;;6.90;3.10;;;;;;;;;;10581544;27;20036;-80
2023/06/20 00:37:02;;;;;;;5.25;2.50;;;;;;;;;;10594735;27;20441;-79
2023/06/20 00:42:05;;;;;;;5.37;2.83;;;;;;;;;;10590744;28;20039;-79
2023/06/20 00:47:10;;;;;;;6.30;2.83;;;;;;;;;;10591509;28;20541;-79
2023/06/20 00:52:13;;;;;;;6.75;2.80;;;;;;;;;;10591724;27;20123;-79
2023/06/20 00:57:15;;;;;;;;;;;;;;;;;;10593423;27;20135;-80
2023/06/20 01:02:21;;;;;;;6.35;3.00;;;;;;;;;;10581646;27;20006;-80
2023/06/20 01:07:29;;;;;;;5.97;2.78;;;;;;;;;;10590014;28;20258;-80
2023/06/20 01:12:36;;;;;;;5.75;3.00;;;;;;;;;;10593344;28;20118;-81
2023/06/20 01:17:44;;;;;;;7.28;3.15;;;;;;;;;;10593590;28;20035;-81
2023/06/20 01:22:57;;;;;;;8.20;3.05;;;;;;;;;;10587061;27;20043;-81
2023/06/20 01:28:06;;;;;;;6.03;2.55;;;;;;;;;;10590411;28;20082;-81
2023/06/20 01:33:09;;;;;;;7.15;2.97;;;;;;;;;;10589262;28;20061;-80
2023/06/20 01:38:14;;;;;;;5.63;2.80;;;;;;;;;;10568548;28;20060;-81
2023/06/20 01:43:19;;;;;;;5.30;2.97;;;;;;;;;;10585282;28;20071;-81
2023/06/20 01:48:23;;;;;;;7.78;3.05;;;;;;;;;;10587697;28;20043;-80
2023/06/20 01:53:28;;;;;;;6.05;2.78;;;;;;;;;;10586056;28;20066;-80
2023/06/20 01:58:35;;;;;;;8.73;2.95;;;;;;;;;;10583973;28;20154;-81
2023/06/20 02:03:41;;;;;;;11.18;3.40;;;;;;;;;;10587785;28;20073;-81
2023/06/20 02:08:45;;;;;;;5.50;3.10;;;;;;;;;;10586969;28;20036;-82
2023/06/20 02:13:48;;;;;;;8.07;3.47;;;;;;;;;;10597784;27;20127;-79
2023/06/20 02:18:51;;;;;;;6.28;3.13;;;;;;;;;;10598030;27;20069;-79
2023/06/20 02:23:56;;;;;;;6.30;3.13;;;;;;;;;;10599495;27;20093;-80
2023/06/20 02:28:59;;;;;;;6.53;3.45;;;;;;;;;;10594398;27;20054;-81
2023/06/20 02:34:04;;;;;;;5.75;3.13;;;;;;;;;;10597999;28;20122;-79
2023/06/20 02:39:08;;;;;;;7.95;3.63;;;;;;;;;;10589433;28;20059;-80
2023/06/20 02:44:11;;;;;;;6.93;3.72;;;;;;;;;;10592044;27;20039;-81
2023/06/20 02:49:18;;;;;;;7.03;3.40;;;;;;;;;;10593832;27;20122;-80
2023/06/20 02:54:23;;;;;;;9.52;3.90;;;;;;;;;;10592890;27;20360;-81
2023/06/20 02:59:27;;;;;;;5.03;2.47;;;;;;;;;;10593129;28;20044;-80
2023/06/20 03:04:32;;;;;;;7.97;3.88;;;;;;;;;;10600103;27;20047;-80
2023/06/20 03:09:37;;;;;;;7.55;3.85;;;;;;;;;;10594761;27;20043;-81
2023/06/20 03:14:40;;;;;;;9.77;3.88;;;;;;;;;;10576658;28;20059;-82
2023/06/20 03:19:43;;;;;;;;;;;;;;;;;;10596842;28;20058;-81
2023/06/20 03:24:49;;;;;;;6.20;3.83;;;;;;;;;;10587972;27;20072;-82
2023/06/20 03:29:52;;;;;;;5.93;3.38;;;;;;;;;;10577638;28;20040;-81
2023/06/20 03:34:54;;;;;;;8.93;4.28;;;;;;;;;;10588944;27;20039;-81
2023/06/20 03:39:58;;;;;;;6.07;3.63;;;;;;;;;;10588431;28;20043;-82
2023/06/20 03:45:01;;;;;;;6.68;3.50;;;;;;;;;;10593389;27;20048;-80
2023/06/20 03:50:04;;;;;;;5.97;3.28;;;;;;;;;;10585134;28;20047;-79
2023/06/20 03:55:09;;;;;;;4.45;2.00;;;;;;;;;;10590695;28;20472;-80
2023/06/20 04:00:12;;;;;;;3.67;1.98;;;;;;;;;;10595614;27;20055;-80
2023/06/20 04:05:15;;;;;;;4.88;2.13;;;;;;;;;;10595335;27;20468;-79
2023/06/20 04:10:19;;;;;;;6.30;3.20;;;;;;;;;;10586023;28;20040;-79
2023/06/20 04:15:22;;;;;;;3.50;2.28;;;;;;;;;;10585335;28;20043;-80
2023/06/20 04:20:25;;;;;;;6.53;3.00;;;;;;;;;;10589015;28;20054;-80
2023/06/20 04:25:29;;;;;;;10.85;4.05;;;;;;;;;;10582404;28;20062;-80
2023/06/20 04:30:32;;;;;;;4.95;2.65;;;;;;;;;;10578272;27;20048;-78
2023/06/20 04:35:35;;;;;;;8.90;3.92;;;;;;;;;;10582976;28;20044;-79
2023/06/20 04:40:39;;;;;;;8.37;3.67;;;;;;;;;;10581702;27;20059;-80
2023/06/20 04:45:42;;;;;;;6.28;3.85;;;;;;;;;;10577391;27;20099;-81
2023/06/20 04:50:44;;;;;;;7.72;3.83;;;;;;;;;;10581613;28;20518;-80
2023/06/20 04:55:50;;;;;;;9.30;3.60;;;;;;;;;;10587177;27;20032;-78
2023/06/20 05:00:53;;;;;;;7.63;4.43;;;;;;;;;;10589577;27;20054;-77
2023/06/20 05:05:55;;;;;;;6.95;3.40;;;;;;;;;;10590140;28;20044;-75
2023/06/20 05:10:59;;;;;;;5.47;2.97;;;;;;;;;;10584219;28;20152;-75
2023/06/20 05:16:02;;;;;;;5.55;3.40;;;;;;;;;;10589454;28;20100;-78
2023/06/20 05:21:05;;;;;;;2.83;1.27;;;;;;;;;;10585646;27;21958;-76
2023/06/20 05:26:08;;;;;;;;;;;;;;;;;;10593426;28;20042;-76
2023/06/20 05:31:12;;;;;;;5.10;2.47;;;;;;;;;;10591537;28;19924;-76
2023/06/20 05:36:14;;;;;;;5.38;3.05;;;;;;;;;;10588577;27;20036;-76
2023/06/20 05:41:17;;;;;;;4.55;2.58;;;;;;;;;;10589561;28;20266;-76
2023/06/20 05:46:21;;;;;;;3.80;2.58;;;;;;;;;;10594471;28;20119;-77
2023/06/20 05:51:24;;;;;;;5.07;2.88;;;;;;;;;;10599282;28;20071;-77
2023/06/20 05:56:26;;;;;;;5.25;3.38;;;;;;;;;;10598992;27;20170;-76
2023/06/20 06:01:30;;;;;;;5.50;3.47;;;;;;;;;;10597672;28;20075;-76
2023/06/20 06:06:33;;;;;;;2.88;1.95;;;;;;;;;;10594577;28;20043;-78
2023/06/20 06:11:36;;;;;;;4.63;2.95;;;;;;;;;;10589789;27;20093;-76
2023/06/20 06:16:39;;;;;;;;;;;;;;;;;;10599884;27;20043;-76
2023/06/20 06:21:43;;;;;;;4.30;2.75;;;;;;;;;;10598615;27;19935;-76
2023/06/20 06:26:45;;;;;;;6.38;3.00;;;;;;;;;;10592865;27;20067;-76
2023/06/20 06:31:48;;;;;;;;;;;;;;;;;;10596796;27;20567;-76
2023/06/20 06:36:52;;;;;;;4.75;2.50;;;;;;;;;;10600318;28;20055;-77
2023/06/20 06:41:55;;;;;;;5.85;2.75;;;;;;;;;;10593517;27;20150;-77
2023/06/20 06:46:57;;;;;;;5.03;2.95;;;;;;;;;;10603819;28;20046;-77
2023/06/20 06:52:02;;;;;;;3.55;1.70;;;;;;;;;;10597525;27;20046;-77
2023/06/20 06:57:06;;;;;;;6.03;2.42;;;;;;;;;;10602573;28;20352;-76
2023/06/20 07:02:09;;;;;;;4.72;2.95;;;;;;;;;;10595830;27;20058;-77
2023/06/20 07:07:13;;;;;;;3.95;1.80;;;;;;;;;;10597078;28;20306;-77
2023/06/20 07:12:16;;;;;;;9.32;3.10;;;;;;;;;;10590712;27;20445;-78
2023/06/20 07:17:19;;;;;;;6.05;2.88;;;;;;;;;;10599512;27;20043;-76
2023/06/20 07:22:23;;;;;;;8.52;3.33;;;;;;;;;;10593003;28;20043;-76
2023/06/20 07:27:26;;;;;;;4.03;2.33;;;;;;;;;;10591114;28;20039;-76
2023/06/20 07:32:29;;;;;;;5.28;2.67;;;;;;;;;;10593909;28;20131;-77
2023/06/20 07:37:33;;;;;;;6.43;3.22;;;;;;;;;;10595930;27;20093;-76
2023/06/20 07:42:36;;;;;;;7.72;3.10;;;;;;;;;;10596157;27;20063;-76
2023/06/20 07:47:38;;;;;;;6.40;3.20;;;;;;;;;;10596288;28;20039;-77
2023/06/20 07:52:43;;;;;;;6.03;2.80;;;;;;;;;;10593730;28;20039;-77
2023/06/20 07:57:46;;;;;;;6.22;3.63;;;;;;;;;;10598223;28;20373;-76
2023/06/20 08:02:49;;;;;;;4.25;2.90;;;;;;;;;;10573000;27;20053;-75
2023/06/20 08:07:53;;;;;;;5.47;2.72;;;;;;;;;;10593189;28;20457;-76
2023/06/20 08:12:56;;;;;;;5.82;2.58;;;;;;;;;;10588350;28;20050;-76
2023/06/20 08:18:00;;;;;;;2.90;1.98;;;;;;;;;;10588051;27;20047;-76
2023/06/20 08:23:04;;;;;;;7.90;3.20;;;;;;;;;;10591024;28;20051;-77
2023/06/20 08:28:07;;;;;;;2.40;1.98;;;;;;;;;;10591760;28;20069;-76
2023/06/20 08:33:17;;;;;;;3.58;2.80;;;;;;;;;;10591146;28;20114;-76
2023/06/20 08:38:21;;;;;;;2.05;1.65;;;;;;;;;;10591625;28;20388;-76
2023/06/20 08:43:24;;;;;;;3.20;2.30;;;;;;;;;;10589458;28;20039;-78
2023/06/20 08:48:27;;;;;;;5.28;2.60;;;;;;;;;;10590603;28;20040;-77
2023/06/20 08:53:31;;;;;;;4.22;2.20;;;;;;;;;;10588000;28;20047;-76
2023/06/20 08:58:34;;;;;;;4.40;2.40;;;;;;;;;;10591303;28;20986;-78
2023/06/20 09:03:36;;;;;;;4.45;2.45;;;;;;;;;;10587717;28;20040;-77
2023/06/20 09:08:43;;;;;;;5.93;2.50;;;;;;;;;;10589012;28;20107;-77
2023/06/20 09:13:45;;;;;;;3.53;1.80;;;;;;;;;;10589008;28;20067;-76
2023/06/20 09:18:50;;;;;;;2.78;2.35;;;;;;;;;;10586713;28;20143;-77
2023/06/20 09:24:03;;;;;;;3.20;2.63;;;;;;;;;;10588743;28;20063;-77
2023/06/20 09:29:06;;;;;;;3.90;2.45;;;;;;;;;;10588467;28;20195;-77
2023/06/20 09:34:10;;;;;;;4.28;2.55;;;;;;;;;;10583417;27;20032;-77
2023/06/20 09:39:17;;;;;;;2.53;2.33;;;;;;;;;;10586271;28;20067;-77
2023/06/20 09:44:21;;;;;;;4.45;2.50;;;;;;;;;;10587131;28;20651;-76
2023/06/20 09:49:24;;;;;;;3.67;2.35;;;;;;;;;;10589664;28;20035;-77
2023/06/20 09:54:32;;;;;;;4.13;2.50;;;;;;;;;;10588219;28;20095;-77
2023/06/20 09:59:36;;;;;;;3.17;2.67;;;;;;;;;;10586672;28;20312;-77
2023/06/20 10:04:42;;;;;;;7.88;2.90;;;;;;;;;;10587402;28;20043;-77
2023/06/20 10:09:48;;;;;;;4.32;2.55;;;;;;;;;;10586090;28;20051;-76
2023/06/20 10:14:51;;;;;;;3.17;2.42;;;;;;;;;;10583938;28;20039;-77
2023/06/20 10:19:54;;;;;;;8.88;2.95;;;;;;;;;;10585546;28;20039;-77
2023/06/20 10:25:01;;;;;;;5.63;2.92;;;;;;;;;;10586368;28;20122;-76
2023/06/20 10:30:05;;;;;;;;;;;;;;;;;;10586679;28;20055;-78
2023/06/20 10:35:15;;;;;;;4.18;2.90;;;;;;;;;;10590252;27;19935;-77
2023/06/20 10:40:30;;;;;;;3.45;2.60;;;;;;;;;;10577599;27;20048;-79
2023/06/20 10:45:33;;;;;;;4.85;3.40;;;;;;;;;;10569234;28;20694;-78
2023/06/20 10:50:36;;;;;;;5.25;3.25;;;;;;;;;;10587561;27;20072;-78
2023/06/20 10:55:43;;;;;;;4.32;3.22;;;;;;;;;;10590311;27;20044;-77
2023/06/20 11:00:51;;;;;;;4.10;3.15;;;;;;;;;;10595607;28;20051;-77
2023/06/20 11:05:55;;;;;;;4.95;2.90;;;;;;;;;;10592775;28;20059;-77
2023/06/20 11:11:02;;;;;;;3.92;2.60;;;;;;;;;;10591004;28;20048;-76
2023/06/20 11:16:05;;;;;;;4.43;3.50;;;;;;;;;;10588327;28;20040;-77
2023/06/20 11:21:09;;;;;;;2.75;2.50;;;;;;;;;;10595411;28;20070;-78
2023/06/20 11:26:13;;;;;;;4.15;2.92;;;;;;;;;;10591917;28;20114;-77
2023/06/20 11:31:16;;;;;;;3.15;2.70;;;;;;;;;;10593452;28;20100;-78
2023/06/20 11:36:18;;;;;;;6.50;3.03;;;;;;;;;;10588753;28;20046;-76
2023/06/20 11:41:29;;;;;;;4.93;3.00;;;;;;;;;;10590303;28;20086;-76
2023/06/20 11:46:32;;;;;;;6.57;3.00;;;;;;;;;;10571868;28;20138;-78
2023/06/20 11:51:34;;;;;;;4.43;2.90;;;;;;;;;;10588491;28;20069;-77
2023/06/20 11:56:38;;;;;;;8.50;3.30;;;;;;;;;;10572092;28;20031;-77
2023/06/20 12:01:45;;;;;;;7.57;2.95;;;;;;;;;;10589820;27;20262;-77
2023/06/20 12:06:52;;;;;;;7.30;3.00;;;;;;;;;;10589617;27;21334;-77
2023/06/20 12:11:56;;;;;;;3.85;2.40;;;;;;;;;;10586635;27;20048;-77
2023/06/20 12:16:59;;;;;;;7.20;3.15;;;;;;;;;;10589708;28;20058;-77
2023/06/20 12:22:03;;;;;;;7.03;3.50;;;;;;;;;;10588723;28;21323;-77
2023/06/20 12:27:07;;;;;;;5.63;2.58;;;;;;;;;;10589185;28;20126;-77
2023/06/20 12:32:11;;;;;;;3.95;2.72;;;;;;;;;;10580043;27;20103;-77
2023/06/20 12:37:13;;;;;;;7.20;2.97;;;;;;;;;;10583174;28;20507;-75
2023/06/20 12:42:18;;;;;;;4.13;2.70;;;;;;;;;;10589471;28;20199;-77
2023/06/20 12:47:22;;;;;;;7.35;2.58;;;;;;;;;;10578987;28;20046;-77
2023/06/20 12:52:26;;;;;;;3.65;2.60;;;;;;;;;;10586911;28;20044;-76
2023/06/20 12:57:30;;;;;;;5.25;2.70;;;;;;;;;;10585952;28;20078;-77
2023/06/20 13:02:33;;;;;;;5.97;2.63;;;;;;;;;;10586182;28;20054;-77
2023/06/20 13:07:36;;;;;;;4.47;2.85;;;;;;;;;;10590919;27;20122;-77
2023/06/20 13:12:41;;;;;;;6.05;2.60;;;;;;;;;;10587484;28;20041;-77
2023/06/20 13:17:43;;;;;;;6.50;2.85;;;;;;;;;;10588040;27;20781;-78
2023/06/20 13:22:46;;;;;;;5.43;2.85;;;;;;;;;;10588351;27;20035;-77
2023/06/20 13:27:50;;;;;;;3.38;2.42;;;;;;;;;;10586282;27;20126;-76
2023/06/20 13:32:53;;;;;;;5.93;2.55;;;;;;;;;;10582610;28;20115;-77
2023/06/20 13:37:58;;;;;;;8.02;2.80;;;;;;;;;;10586408;28;20039;-77
2023/06/20 13:43:06;;;;;;;7.07;2.72;;;;;;;;;;10583233;28;20065;-77
2023/06/20 13:48:09;;;;;;;4.22;2.65;;;;;;;;;;10586164;28;20039;-77
2023/06/20 13:53:12;;;;;;;5.82;2.60;;;;;;;;;;10592485;28;20066;-76
2023/06/20 13:58:16;;;;;;;8.15;2.95;;;;;;;;;;10591114;28;20051;-76
2023/06/20 14:03:19;;;;;;;6.05;3.00;;;;;;;;;;10587596;28;20032;-77
2023/06/20 14:08:22;;;;;;;7.45;3.30;;;;;;;;;;10587681;27;20048;-76
2023/06/20 14:13:26;;;;;;;6.43;3.20;;;;;;;;;;10594323;28;20534;-77
2023/06/20 14:18:29;;;;;;;3.78;2.50;;;;;;;;;;10594067;27;20054;-78
2023/06/20 14:23:31;;;;;;;5.15;2.65;;;;;;;;;;10596811;28;20044;-77
2023/06/20 14:28:35;;;;;;;6.85;2.83;;;;;;;;;;10571414;28;20039;-77
2023/06/20 14:33:39;;;;;;;3.78;2.20;;;;;;;;;;10593897;28;20040;-77
2023/06/20 14:38:41;;;;;;;7.20;2.83;;;;;;;;;;10593809;28;20035;-76
2023/06/20 14:43:47;;;;;;;7.75;3.13;;;;;;;;;;10593842;27;20147;-76
2023/06/20 14:48:52;;;;;;;6.93;2.72;;;;;;;;;;10591052;28;20035;-76
2023/06/20 14:53:55;;;;;;;6.50;2.78;;;;;;;;;;10592962;28;20457;-77
2023/06/20 14:58:59;;;;;;;7.40;2.60;;;;;;;;;;10594742;28;20043;-77
2023/06/20 15:04:03;;;;;;;6.60;2.92;;;;;;;;;;10593501;27;20211;-78
2023/06/20 15:09:07;;;;;;;7.85;2.90;;;;;;;;;;10591484;27;20163;-76
2023/06/20 15:14:11;;;;;;;4.80;2.50;;;;;;;;;;10594997;27;20036;-77
2023/06/20 15:19:13;;;;;;;5.20;2.92;;;;;;;;;;10593541;28;20131;-76
2023/06/20 15:24:16;;;;;;;5.35;2.95;;;;;;;;;;10576624;27;20061;-77
2023/06/20 15:29:20;;;;;;;5.25;2.95;;;;;;;;;;10577992;28;20292;-77
2023/06/20 15:34:23;;;;;;;6.75;3.05;;;;;;;;;;10582764;27;20086;-76
2023/06/20 15:39:26;;;;;;;8.77;3.28;;;;;;;;;;10588218;27;20035;-76
2023/06/20 15:44:33;;;;;;;7.10;3.13;;;;;;;;;;10588637;28;20107;-76
2023/06/20 15:49:36;;;;;;;10.13;3.38;;;;;;;;;;10593623;27;20059;-77
2023/06/20 15:54:38;;;;;;;6.25;3.60;;;;;;;;;;10585756;28;20142;-76
2023/06/20 15:59:42;;;;;;;8.50;3.53;;;;;;;;;;10586817;28;20040;-76
2023/06/20 16:04:45;;;;;;;7.28;3.08;;;;;;;;;;10584745;27;20138;-77
2023/06/20 16:09:48;;;;;;;4.43;2.67;;;;;;;;;;10586176;28;20302;-77
2023/06/20 16:14:52;;;;;;;5.88;3.10;;;;;;;;;;10563613;28;20103;-76
2023/06/20 16:19:55;;;;;;;4.03;2.83;;;;;;;;;;10578651;28;20078;-76
2023/06/20 16:24:57;;;;;;;5.30;3.17;;;;;;;;;;10585247;28;20047;-77
2023/06/20 16:30:02;;;;;;;6.60;3.10;;;;;;;;;;10583389;28;20046;-77
2023/06/20 16:35:05;;;;;;;5.32;2.97;;;;;;;;;;10587574;28;20048;-77
2023/06/20 16:40:08;;;;;;;7.03;3.20;;;;;;;;;;10587541;28;20525;-76
2023/06/20 16:45:12;;;;;;;4.63;2.90;;;;;;;;;;10588467;28;20040;-77
2023/06/20 16:50:19;;;;;;;7.00;3.30;;;;;;;;;;10590054;28;20040;-78
2023/06/20 16:55:21;;;;;;;5.78;3.13;;;;;;;;;;10584841;28;20357;-77
2023/06/20 17:00:25;;;;;;;6.53;3.47;;;;;;;;;;10584399;28;20032;-77
2023/06/20 17:05:29;;;;;;;7.13;3.22;;;;;;;;;;10588101;28;20039;-77
2023/06/20 17:10:31;;;;;;;6.47;3.05;;;;;;;;;;10582928;28;20031;-76
2023/06/20 17:15:35;;;;;;;7.97;3.17;;;;;;;;;;10586888;28;20050;-76
2023/06/20 17:20:38;;;;;;;8.50;2.97;;;;;;;;;;10584484;28;20038;-76
2023/06/20 17:25:41;;;;;;;6.72;3.20;;;;;;;;;;10590729;28;20131;-76
2023/06/20 17:30:45;;;;;;;5.13;3.13;;;;;;;;;;10586786;28;20408;-77
2023/06/20 17:35:48;;;;;;;5.05;2.88;;;;;;;;;;10589718;28;20050;-78
2023/06/20 17:40:52;;;;;;;7.07;2.85;;;;;;;;;;10579623;28;20098;-77
2023/06/20 17:45:56;;;;;;;4.93;3.08;;;;;;;;;;10577364;28;20691;-77
2023/06/20 17:50:59;;;;;;;7.30;3.13;;;;;;;;;;10585065;28;20054;-76
2023/06/20 17:56:02;;;;;;;7.05;3.05;;;;;;;;;;10585095;28;20632;-76
2023/06/20 18:01:06;;;;;;;6.20;2.90;;;;;;;;;;10583479;28;20122;-77
2023/06/20 18:06:09;;;;;;;8.20;3.30;;;;;;;;;;10586986;28;20052;-76
2023/06/20 18:11:12;;;;;;;8.00;3.40;;;;;;;;;;10605302;27;20127;-76
2023/06/20 18:16:15;;;;;;;5.07;3.05;;;;;;;;;;10578415;28;20146;-78
2023/06/20 18:21:18;;;;;;;5.80;3.00;;;;;;;;;;10582302;28;20044;-77
2023/06/20 18:26:21;;;;;;;5.38;3.40;;;;;;;;;;10577040;28;20031;-77
2023/06/20 18:31:25;;;;;;;8.93;3.20;;;;;;;;;;10580906;28;20069;-77
2023/06/20 18:36:28;;;;;;;5.93;3.35;;;;;;;;;;10588131;28;20684;-76
2023/06/20 18:41:31;;;;;;;7.28;3.50;;;;;;;;;;10577216;28;20051;-77
2023/06/20 18:46:34;;;;;;;6.97;3.53;;;;;;;;;;10580957;28;20478;-77
2023/06/20 18:51:39;;;;;;;8.35;3.28;;;;;;;;;;10578098;28;20079;-78
2023/06/20 18:56:42;;;;;;;7.75;3.55;;;;;;;;;;10584605;27;20154;-77
2023/06/20 19:01:46;;;;;;;9.25;3.58;;;;;;;;;;10588656;27;20040;-77
2023/06/20 19:06:49;;;;;;;11.00;3.75;;;;;;;;;;10591189;28;20078;-77
2023/06/20 19:11:52;;;;;;;9.27;5.07;;;;;;;;;;10588496;28;20043;-77
2023/06/20 19:16:56;;;;;;;8.48;3.65;;;;;;;;;;10589688;27;20035;-78
2023/06/20 19:21:59;;;;;;;10.35;4.22;;;;;;;;;;10590292;27;20043;-77
2023/06/20 19:27:02;;;;;;;6.28;3.65;;;;;;;;;;10591159;27;20101;-77
2023/06/20 19:32:07;;;;;;;10.05;4.43;;;;;;;;;;10590015;27;20040;-77
2023/06/20 19:37:09;;;;;;;8.88;4.03;;;;;;;;;;10586809;28;20062;-77
2023/06/20 19:42:12;;;;;;;9.90;4.05;;;;;;;;;;10586258;28;20050;-77
2023/06/20 19:47:18;;;;;;;13.25;6.65;;;;;;;;;;10583776;27;20058;-77
2023/06/20 19:52:21;;;;;;;11.07;5.32;;;;;;;;;;10596535;27;20048;-77
2023/06/20 19:57:25;;;;;;;14.85;5.15;;;;;;;;;;10592112;27;20044;-77
2023/06/20 20:02:29;;;;;;;13.75;3.88;;;;;;;;;;10590592;28;20070;-78
2023/06/20 20:07:32;;;;;;;7.20;2.92;;;;;;;;;;10591714;28;20457;-75
2023/06/20 20:12:37;;;;;;;9.73;4.28;;;;;;;;;;10581119;28;20107;-79
2023/06/20 20:17:42;;;;;;;10.77;4.68;;;;;;;;;;10579944;28;20071;-79
2023/06/20 20:22:45;;;;;;;11.85;4.53;;;;;;;;;;10576748;28;20055;-79
2023/06/20 20:27:49;;;;;;;12.60;4.20;;;;;;;;;;10583454;28;20039;-79
2023/06/20 20:32:53;;;;;;;15.68;4.80;;;;;;;;;;10582243;27;20039;-80
2023/06/20 20:37:56;;;;;;;13.23;6.15;;;;;;;;;;10576115;28;20500;-80
2023/06/20 20:42:59;;;;;;;11.95;4.70;;;;;;;;;;10569335;28;20132;-80
2023/06/20 20:48:03;;;;;;;10.85;4.35;;;;;;;;;;10579098;27;20063;-81
2023/06/20 20:53:06;;;;;;;13.45;4.65;;;;;;;;;;10588234;28;20040;-81
2023/06/20 20:58:09;;;;;;;10.45;4.05;;;;;;;;;;10583172;27;20063;-80
2023/06/20 21:03:12;;;;;;;;;;;;;;;;;;10587693;28;20051;-83
2023/06/20 21:08:16;;;;;;;9.00;4.07;;;;;;;;;;10590716;27;19927;-83
2023/06/20 21:13:19;;;;;;;7.60;3.53;;;;;;;;;;10589605;27;20059;-81
2023/06/20 21:18:21;;;;;;;12.52;4.13;;;;;;;;;;10589274;27;20067;-80
2023/06/20 21:23:24;;;;;;;;;;;;;;;;;;10591942;28;20051;-81
2023/06/20 21:28:28;;;;;;;10.13;4.20;;;;;;;;;;10586012;28;19983;-82
2023/06/20 21:33:31;;;;;;;9.50;4.40;;;;;;;;;;10583534;27;20040;-81
2023/06/20 21:38:34;;;;;;;11.98;4.20;;;;;;;;;;10585514;28;20035;-81
2023/06/20 21:43:38;;;;;;;13.52;4.95;;;;;;;;;;10592058;28;20043;-82
2023/06/20 21:48:41;;;;;;;7.65;3.58;;;;;;;;;;10594115;28;20086;-81
2023/06/20 21:53:43;;;;;;;10.30;4.43;;;;;;;;;;10589840;28;20074;-82
2023/06/20 21:58:46;;;;;;;;;;;;;;;;;;10593349;28;20047;-83
2023/06/20 22:03:50;;;;;;;11.73;4.70;;;;;;;;;;10590488;28;19934;-82
2023/06/20 22:08:53;;;;;;;10.55;4.45;;;;;;;;;;10570150;28;20043;-82
2023/06/20 22:13:56;;;;;;;10.20;4.57;;;;;;;;;;10588822;28;20039;-82
2023/06/20 22:19:00;;;;;;;9.48;3.70;;;;;;;;;;10588177;28;20058;-82
2023/06/20 22:24:03;;;;;;;11.30;5.00;;;;;;;;;;10591033;28;20063;-83
2023/06/20 22:29:06;;;;;;;10.10;4.30;;;;;;;;;;10593886;28;20057;-84
2023/06/20 22:34:10;;;;;;;11.98;4.40;;;;;;;;;;10579940;28;20047;-85
2023/06/20 22:39:14;;;;;;;9.80;3.30;;;;;;;;;;10583190;28;20076;-86
2023/06/20 22:44:16;;;;;;;13.90;4.82;;;;;;;;;;10600410;28;20031;-88
2023/06/20 22:49:21;;;;;;;12.20;5.05;;;;;;;;;;10601999;28;20051;-89
2023/06/20 22:54:25;;;;;;;11.10;4.53;;;;;;;;;;10601688;28;20047;-90
2023/06/20 22:59:28;;;;;;;14.25;4.68;;;;;;;;;;10605196;28;20067;-92
2023/06/20 23:04:32;;;;;;;11.85;4.63;;;;;;;;;;10613069;27;20146;-92
2023/06/20 23:09:35;;;;;;;9.45;4.35;;;;;;;;;;10605632;28;20047;-92
2023/06/20 23:14:38;;;;;;;12.88;4.82;;;;;;;;;;10604701;27;20043;-94
2023/06/20 23:19:42;;;;;;;11.85;4.63;;;;;;;;;;10597804;28;20069;-91
2023/06/20 23:24:45;;;;;;;13.85;4.70;;;;;;;;;;10599239;27;20063;-91
2023/06/20 23:29:48;;;;;;;13.25;4.90;;;;;;;;;;10600333;27;20040;-88
2023/06/20 23:34:53;;;;;;;12.63;4.45;;;;;;;;;;10599069;27;20108;-88
2023/06/20 23:39:56;;;;;;;11.60;4.50;;;;;;;;;;10603381;27;20069;-90
2023/06/20 23:44:59;;;;;;;;;;;;;;;;;;10597993;27;20105;-86
2023/06/20 23:50:04;;;;;;;12.77;3.60;;;;;;;;;;10598719;27;20519;-78
2023/06/20 23:55:07;;;;;;;12.50;4.18;;;;;;;;;;10593656;27;20143;-77
